createdAt,value
2022-10-20T06:33:54.813Z,101836.22
2022-10-20T06:36:41.910Z,101849.09
2022-10-20T06:39:27.457Z,101823.97
2022-10-20T06:42:12.938Z,101798.69
2022-10-20T06:44:59.168Z,101821.00
2022-10-20T06:47:45.265Z,101845.91
2022-10-20T06:50:30.629Z,101832.66
2022-10-20T06:53:16.267Z,101785.72
2022-10-20T06:56:08.107Z,101862.88
2022-10-20T06:58:55.771Z,101839.41
2022-10-20T07:01:42.203Z,101830.44
2022-10-20T07:04:28.058Z,101819.13
2022-10-20T07:07:13.399Z,101809.47
2022-10-20T07:09:59.225Z,101794.41
2022-10-20T07:12:44.760Z,101857.13
2022-10-20T07:15:30.133Z,101820.88
2022-10-20T07:18:15.718Z,101801.03
2022-10-20T07:21:04.130Z,101821.31
2022-10-20T07:23:50.636Z,101824.53
2022-10-20T07:26:39.214Z,101802.97
2022-10-20T07:29:25.008Z,101793.72
2022-10-20T07:32:10.580Z,101815.78
2022-10-20T07:34:56.052Z,101781.72
2022-10-20T07:37:41.415Z,101778.22
2022-10-20T07:40:27.117Z,101802.06
2022-10-20T07:43:12.776Z,101814.38
2022-10-20T07:45:58.121Z,101768.84
2022-10-20T07:48:43.890Z,101777.88
2022-10-20T07:51:30.946Z,101773.75
2022-10-20T07:54:16.860Z,101773.06
2022-10-20T07:57:02.701Z,101743.03
2022-10-20T07:59:48.025Z,101751.47
2022-10-20T08:02:33.517Z,101756.81
2022-10-20T08:05:19.151Z,101774.03
2022-10-20T08:08:04.970Z,101747.06
2022-10-20T08:10:51.018Z,101753.44
2022-10-20T08:13:36.570Z,101738.88
2022-10-20T08:16:31.087Z,101694.41
2022-10-20T08:19:24.863Z,101748.34
2022-10-20T08:22:10.738Z,101754.53
2022-10-20T08:24:56.363Z,101688.34
2022-10-20T08:27:42.139Z,101701.63
2022-10-20T08:30:27.887Z,101685.03
2022-10-20T08:33:13.686Z,101668.75
2022-10-20T08:36:04.422Z,101691.53
2022-10-20T08:38:49.860Z,101696.94
2022-10-20T08:42:07.447Z,101677.91
2022-10-20T08:44:47.304Z,101692.25
2022-10-20T08:47:37.342Z,101668.28
2022-10-20T08:50:27.578Z,101640.25
2022-10-20T08:53:13.154Z,101691.78
2022-10-20T08:55:59.085Z,101643.88
2022-10-20T08:58:46.366Z,101652.59
2022-10-20T09:01:36.106Z,101657.50
2022-10-20T09:04:37.136Z,101620.66
2022-10-20T09:07:35.841Z,101676.06
2022-10-20T09:10:31.600Z,101666.84
2022-10-20T09:13:24.898Z,101668.13
2022-10-20T09:16:33.426Z,101633.84
2022-10-20T09:19:28.162Z,101608.25
2022-10-20T09:22:14.655Z,101611.19
2022-10-20T09:25:00.439Z,101644.25
2022-10-20T09:27:46.320Z,101634.25
2022-10-20T09:30:34.396Z,101635.13
2022-10-20T09:33:34.244Z,101625.63
2022-10-20T09:36:27.669Z,101635.22
2022-10-20T09:39:27.030Z,101651.50
2022-10-20T09:42:16.608Z,101623.09
2022-10-20T09:45:06.962Z,101615.03
2022-10-20T09:47:56.391Z,101587.69
2022-10-20T09:50:48.013Z,101585.56
2022-10-20T09:53:39.932Z,101585.69
2022-10-20T09:56:25.545Z,101635.78
2022-10-20T09:59:19.735Z,101641.09
2022-10-20T10:02:29.872Z,101658.72
2022-10-20T11:10:39.998Z,101530.88
2022-10-20T14:35:11.724Z,101215.78
2022-10-20T14:37:44.845Z,101205.38
2022-10-20T14:40:35.499Z,101197.03
2022-10-20T14:43:53.553Z,101228.66
2022-10-20T14:46:48.186Z,101219.03
2022-10-20T14:50:44.231Z,101236.78
2022-10-20T14:53:29.517Z,101264.94
2022-10-20T14:58:03.376Z,101190.88
2022-10-20T14:59:47.567Z,101228.22
2022-10-20T15:03:32.183Z,101257.53
2022-10-20T15:06:23.617Z,101204.63
2022-10-20T15:10:27.461Z,101178.56
2022-10-20T15:15:58.626Z,101160.81
2022-10-20T15:18:58.131Z,101232.13
2022-10-20T15:25:03.392Z,101179.09
2022-10-20T15:27:50.537Z,101176.31
2022-10-20T15:30:36.374Z,101138.34
2022-10-20T15:33:36.440Z,101182.03
2022-10-20T15:36:31.515Z,101160.25
2022-10-20T15:39:20.601Z,101165.44
2022-10-20T15:42:22.170Z,101155.75
2022-10-20T15:45:22.699Z,101208.53
2022-10-20T15:48:23.541Z,101140.50
2022-10-20T15:51:39.043Z,101105.91
2022-10-20T15:54:25.082Z,101131.19
2022-10-20T15:57:24.737Z,101119.44
2022-10-20T16:00:12.387Z,101081.03
2022-10-20T16:03:08.688Z,101125.00
2022-10-20T16:05:55.874Z,101135.28
2022-10-20T16:08:51.926Z,101117.63
2022-10-20T16:11:42.513Z,101184.53
2022-10-20T16:14:28.167Z,101200.41
2022-10-20T16:17:13.732Z,101228.19
2022-10-20T16:19:59.289Z,101218.59
2022-10-20T16:22:44.854Z,101173.69
2022-10-20T16:25:30.321Z,101189.28
2022-10-20T16:28:15.853Z,101158.22
2022-10-20T16:31:06.758Z,101127.88
2022-10-20T16:33:52.179Z,101175.28
2022-10-20T16:36:38.391Z,101198.78
2022-10-20T16:39:24.173Z,101089.09
2022-10-20T16:42:09.640Z,101082.66
2022-10-20T16:44:55.152Z,101132.03
2022-10-20T16:47:40.896Z,101114.00
2022-10-20T16:50:26.241Z,101148.78
2022-10-20T16:53:11.645Z,101190.41
2022-10-20T16:55:57.499Z,101135.13
2022-10-20T16:58:43.081Z,101143.72
2022-10-20T17:01:28.744Z,101190.09
2022-10-20T17:04:14.598Z,101150.56
2022-10-20T17:07:00.168Z,101095.06
2022-10-20T17:09:45.911Z,101070.97
2022-10-20T17:12:31.422Z,101163.22
2022-10-20T17:15:16.909Z,101124.44
2022-10-20T17:18:02.337Z,101087.22
2022-10-20T17:20:53.115Z,101069.81
2022-10-20T17:23:42.616Z,101120.34
2022-10-20T17:26:32.597Z,101110.22
2022-10-20T17:29:21.043Z,101068.97
2022-10-20T17:32:10.086Z,101082.44
2022-10-20T17:34:57.759Z,101090.66
2022-10-20T17:37:43.418Z,101064.53
2022-10-20T17:40:28.859Z,101088.78
2022-10-20T17:43:14.969Z,101076.53
2022-10-20T17:46:03.547Z,101098.31
2022-10-20T17:48:49.272Z,101090.09
2022-10-20T17:51:35.216Z,101088.03
2022-10-20T17:54:22.233Z,101136.91
2022-10-20T17:57:07.988Z,101079.53
2022-10-20T17:59:56.362Z,101045.47
2022-10-20T18:02:51.390Z,101067.63
2022-10-20T18:05:37.162Z,101046.47
2022-10-20T18:08:22.542Z,101046.31
2022-10-20T18:11:11.864Z,101039.59
2022-10-20T18:13:59.919Z,101097.63
2022-10-20T18:16:45.575Z,101061.34
2022-10-20T18:19:31.407Z,101085.72
2022-10-20T18:22:16.795Z,101046.19
2022-10-20T18:25:02.274Z,101051.38
2022-10-20T18:27:48.058Z,101033.19
2022-10-20T18:30:37.335Z,101009.13
2022-10-20T18:33:23.071Z,101042.69
2022-10-20T18:36:11.293Z,101064.06
2022-10-20T18:38:57.265Z,101027.91
2022-10-20T18:41:43.854Z,101068.06
2022-10-20T18:47:20.786Z,101018.03
2022-10-20T18:50:06.415Z,101059.25
2022-10-20T18:52:51.923Z,101028.16
2022-10-20T18:55:37.832Z,101003.41
2022-10-20T18:58:23.248Z,100985.00
2022-10-20T19:01:14.283Z,100995.22
2022-10-20T19:04:00.472Z,101049.25
2022-10-20T19:06:47.859Z,100978.81
2022-10-20T19:09:33.445Z,100988.72
2022-10-20T19:12:18.949Z,100991.88
2022-10-20T19:15:04.642Z,100967.59
2022-10-20T19:17:50.338Z,100998.84
2022-10-20T19:20:35.931Z,100990.50
2022-10-20T19:23:22.033Z,100975.81
2022-10-20T19:26:17.262Z,100951.03
2022-10-20T19:29:08.692Z,100966.97
2022-10-20T19:31:59.171Z,100949.41
2022-10-20T19:34:45.271Z,101028.97
2022-10-20T19:37:30.888Z,100936.00
2022-10-20T19:40:16.344Z,100939.22
2022-10-20T19:43:01.787Z,100981.97
2022-10-20T19:45:49.172Z,100920.50
2022-10-20T19:48:35.823Z,100930.81
2022-10-20T19:51:21.835Z,100945.63
2022-10-20T19:54:08.410Z,100984.22
2022-10-20T19:56:54.292Z,100964.41
2022-10-20T19:59:39.865Z,100919.94
2022-10-20T20:02:25.783Z,100994.44
2022-10-20T20:05:11.401Z,100912.44
2022-10-20T20:07:56.839Z,100927.03
2022-10-20T20:10:51.098Z,100942.03
2022-10-20T20:13:36.902Z,100927.63
2022-10-20T20:16:22.677Z,100955.84
2022-10-20T20:19:08.487Z,100976.88
2022-10-20T20:21:55.312Z,100899.41
2022-10-20T20:24:41.036Z,100928.47
2022-10-20T20:27:26.507Z,100911.66
2022-10-20T20:30:12.261Z,100963.31
2022-10-20T20:32:57.791Z,100870.84
2022-10-20T20:35:43.334Z,100891.59
2022-10-20T20:38:31.355Z,100943.38
2022-10-20T20:41:18.305Z,100917.72
2022-10-20T20:44:08.064Z,100982.63
2022-10-20T20:46:54.395Z,101007.91
2022-10-20T20:49:39.785Z,100943.78
2022-10-20T20:52:26.091Z,100973.84
2022-10-20T20:55:11.804Z,100964.00
2022-10-20T20:57:57.123Z,100918.97
2022-10-20T21:00:42.841Z,100918.59
2022-10-20T21:03:29.268Z,100940.97
2022-10-20T21:06:17.042Z,100942.22
2022-10-20T21:09:11.195Z,100921.13
2022-10-20T21:11:56.979Z,100934.91
2022-10-20T21:14:42.532Z,100886.69
2022-10-20T21:17:27.871Z,100917.03
2022-10-20T21:20:13.299Z,100886.56
2022-10-20T21:23:01.208Z,100928.38
2022-10-20T21:25:49.716Z,100954.06
2022-10-20T21:28:38.795Z,100927.25
2022-10-20T21:31:26.165Z,100908.09
2022-10-20T21:34:12.126Z,100896.59
2022-10-20T21:36:57.936Z,100918.25
2022-10-20T21:39:43.762Z,100886.56
2022-10-20T21:42:29.019Z,100853.81
2022-10-20T21:45:19.024Z,100911.28
2022-10-20T21:48:05.373Z,100883.38
2022-10-20T21:50:50.998Z,100894.94
2022-10-20T21:53:36.986Z,100946.44
2022-10-20T21:56:22.790Z,100887.09
2022-10-20T21:59:15.220Z,100879.69
2022-10-20T22:02:02.084Z,100848.69
2022-10-20T22:04:47.865Z,100872.31
2022-10-20T22:07:33.615Z,100879.59
2022-10-20T22:10:18.936Z,100907.72
2022-10-20T22:13:05.327Z,100842.53
2022-10-20T22:15:50.940Z,100841.38
2022-10-20T22:18:36.843Z,100884.28
2022-10-20T22:21:24.945Z,100863.03
2022-10-20T22:24:11.150Z,100873.28
2022-10-20T22:26:56.706Z,100829.41
2022-10-20T22:29:42.365Z,100822.63
2022-10-20T22:32:27.937Z,100813.28
2022-10-20T22:35:13.674Z,100817.38
2022-10-20T22:37:59.417Z,100873.06
2022-10-20T22:40:45.020Z,100864.56
2022-10-20T22:43:31.383Z,100827.22
2022-10-20T22:46:18.871Z,100923.25
2022-10-20T22:49:07.422Z,100826.38
2022-10-20T22:51:53.134Z,100876.28
2022-10-20T22:54:38.744Z,100833.69
2022-10-20T22:57:24.219Z,100875.34
2022-10-20T23:00:13.577Z,100902.31
2022-10-20T23:02:59.190Z,100842.59
2022-10-20T23:05:44.903Z,100940.94
2022-10-20T23:08:32.057Z,100856.19
2022-10-20T23:11:19.151Z,100850.75
2022-10-20T23:14:04.638Z,100938.38
2022-10-20T23:16:50.214Z,100849.13
2022-10-20T23:19:35.825Z,100869.19
2022-10-20T23:22:24.243Z,100899.31
2022-10-20T23:25:10.053Z,100900.50
2022-10-20T23:27:56.447Z,100886.56
2022-10-20T23:30:41.966Z,100865.78
2022-10-20T23:33:27.351Z,100851.63
2022-10-20T23:36:14.252Z,100941.38
2022-10-20T23:39:02.345Z,100922.34
2022-10-20T23:41:47.860Z,100895.91
2022-10-20T23:44:33.235Z,100837.72
2022-10-20T23:47:18.859Z,100861.53
2022-10-20T23:50:04.360Z,100881.38
2022-10-20T23:52:49.920Z,100846.84
2022-10-20T23:55:35.659Z,100891.22
2022-10-20T23:58:22.614Z,100883.13
